sensor_id;sensor_type;location;lat;lon;timestamp;P1;durP1;ratioP1;P2;durP2;ratioP2
79454;SDS011;68900;52.134;5.420;2023-09-19T00:00:46;6.13;;;1.00;;
79454;SDS011;68900;52.134;5.420;2023-09-19T00:03:16;4.28;;;0.85;;
79454;SDS011;68900;52.134;5.420;2023-09-19T00:05:43;6.35;;;1.02;;
79454;SDS011;68900;52.134;5.420;2023-09-19T00:08:10;5.68;;;1.00;;
79454;SDS011;68900;52.134;5.420;2023-09-19T00:10:39;6.75;;;0.90;;
79454;SDS011;68900;52.134;5.420;2023-09-19T00:13:08;5.10;;;0.80;;
79454;SDS011;68900;52.134;5.420;2023-09-19T00:15:45;5.45;;;1.35;;
79454;SDS011;68900;52.134;5.420;2023-09-19T00:18:17;6.85;;;1.25;;
79454;SDS011;68900;52.134;5.420;2023-09-19T00:20:49;7.38;;;1.10;;
79454;SDS011;68900;52.134;5.420;2023-09-19T00:23:17;5.63;;;0.90;;
79454;SDS011;68900;52.134;5.420;2023-09-19T00:25:46;5.65;;;1.10;;
79454;SDS011;68900;52.134;5.420;2023-09-19T00:28:12;6.32;;;1.05;;
79454;SDS011;68900;52.134;5.420;2023-09-19T00:30:39;8.40;;;1.20;;
79454;SDS011;68900;52.134;5.420;2023-09-19T00:33:09;7.35;;;1.02;;
79454;SDS011;68900;52.134;5.420;2023-09-19T00:35:37;7.28;;;1.48;;
79454;SDS011;68900;52.134;5.420;2023-09-19T00:38:04;5.18;;;0.90;;
79454;SDS011;68900;52.134;5.420;2023-09-19T00:40:30;7.20;;;0.95;;
79454;SDS011;68900;52.134;5.420;2023-09-19T00:42:59;8.15;;;1.05;;
79454;SDS011;68900;52.134;5.420;2023-09-19T00:45:26;4.85;;;1.38;;
79454;SDS011;68900;52.134;5.420;2023-09-19T00:47:54;8.57;;;1.27;;
79454;SDS011;68900;52.134;5.420;2023-09-19T00:50:22;7.32;;;1.02;;
79454;SDS011;68900;52.134;5.420;2023-09-19T00:52:53;3.58;;;0.90;;
79454;SDS011;68900;52.134;5.420;2023-09-19T00:55:24;4.65;;;1.00;;
79454;SDS011;68900;52.134;5.420;2023-09-19T00:57:51;8.30;;;1.10;;
79454;SDS011;68900;52.134;5.420;2023-09-19T01:00:19;4.68;;;0.82;;
79454;SDS011;68900;52.134;5.420;2023-09-19T01:02:46;8.75;;;1.42;;
79454;SDS011;68900;52.134;5.420;2023-09-19T01:05:14;4.65;;;1.08;;
79454;SDS011;68900;52.134;5.420;2023-09-19T01:07:41;6.95;;;1.10;;
79454;SDS011;68900;52.134;5.420;2023-09-19T01:10:09;5.75;;;0.85;;
79454;SDS011;68900;52.134;5.420;2023-09-19T01:12:48;5.38;;;1.00;;
79454;SDS011;68900;52.134;5.420;2023-09-19T01:15:49;4.40;;;1.10;;
79454;SDS011;68900;52.134;5.420;2023-09-19T01:18:26;5.60;;;0.80;;
79454;SDS011;68900;52.134;5.420;2023-09-19T01:23:59;7.22;;;1.10;;
79454;SDS011;68900;52.134;5.420;2023-09-19T01:29:38;5.32;;;0.82;;
79454;SDS011;68900;52.134;5.420;2023-09-19T01:32:16;6.75;;;1.20;;
79454;SDS011;68900;52.134;5.420;2023-09-19T01:34:48;5.75;;;1.10;;
79454;SDS011;68900;52.134;5.420;2023-09-19T01:37:23;7.85;;;1.35;;
79454;SDS011;68900;52.134;5.420;2023-09-19T01:39:55;6.15;;;1.20;;
79454;SDS011;68900;52.134;5.420;2023-09-19T01:51:11;3.55;;;0.95;;
79454;SDS011;68900;52.134;5.420;2023-09-19T01:53:41;8.23;;;1.13;;
79454;SDS011;68900;52.134;5.420;2023-09-19T01:59:28;4.10;;;1.20;;
79454;SDS011;68900;52.134;5.420;2023-09-19T02:02:06;7.10;;;1.50;;
79454;SDS011;68900;52.134;5.420;2023-09-19T02:04:35;9.95;;;1.60;;
79454;SDS011;68900;52.134;5.420;2023-09-19T02:07:01;7.60;;;1.55;;
79454;SDS011;68900;52.134;5.420;2023-09-19T02:09:34;6.68;;;1.33;;
79454;SDS011;68900;52.134;5.420;2023-09-19T02:12:05;8.40;;;1.20;;
79454;SDS011;68900;52.134;5.420;2023-09-19T02:14:32;10.05;;;1.67;;
79454;SDS011;68900;52.134;5.420;2023-09-19T02:16:58;11.15;;;1.65;;
79454;SDS011;68900;52.134;5.420;2023-09-19T02:19:26;10.35;;;1.40;;
79454;SDS011;68900;52.134;5.420;2023-09-19T02:21:57;7.95;;;1.50;;
79454;SDS011;68900;52.134;5.420;2023-09-19T02:24:23;5.95;;;1.38;;
79454;SDS011;68900;52.134;5.420;2023-09-19T02:26:51;7.70;;;1.55;;
79454;SDS011;68900;52.134;5.420;2023-09-19T02:29:19;6.38;;;1.25;;
79454;SDS011;68900;52.134;5.420;2023-09-19T02:31:45;5.93;;;1.20;;
79454;SDS011;68900;52.134;5.420;2023-09-19T02:34:13;5.50;;;1.30;;
79454;SDS011;68900;52.134;5.420;2023-09-19T02:36:45;6.47;;;1.60;;
79454;SDS011;68900;52.134;5.420;2023-09-19T02:39:12;8.80;;;1.45;;
79454;SDS011;68900;52.134;5.420;2023-09-19T02:41:38;7.25;;;1.60;;
79454;SDS011;68900;52.134;5.420;2023-09-19T02:44:05;8.82;;;1.40;;
79454;SDS011;68900;52.134;5.420;2023-09-19T02:46:34;9.95;;;2.03;;
79454;SDS011;68900;52.134;5.420;2023-09-19T02:49:03;7.90;;;1.40;;
79454;SDS011;68900;52.134;5.420;2023-09-19T02:51:32;6.20;;;1.52;;
79454;SDS011;68900;52.134;5.420;2023-09-19T02:53:59;9.38;;;1.38;;
79454;SDS011;68900;52.134;5.420;2023-09-19T02:56:26;11.10;;;1.48;;
79454;SDS011;68900;52.134;5.420;2023-09-19T02:58:53;7.82;;;1.42;;
79454;SDS011;68900;52.134;5.420;2023-09-19T03:01:19;7.50;;;1.30;;
79454;SDS011;68900;52.134;5.420;2023-09-19T03:03:46;8.35;;;2.00;;
79454;SDS011;68900;52.134;5.420;2023-09-19T03:06:12;8.10;;;1.60;;
79454;SDS011;68900;52.134;5.420;2023-09-19T03:08:39;8.75;;;1.40;;
79454;SDS011;68900;52.134;5.420;2023-09-19T03:11:06;10.07;;;1.42;;
79454;SDS011;68900;52.134;5.420;2023-09-19T03:13:33;5.60;;;1.40;;
79454;SDS011;68900;52.134;5.420;2023-09-19T03:16:04;7.53;;;1.40;;
79454;SDS011;68900;52.134;5.420;2023-09-19T03:18:34;8.45;;;1.38;;
79454;SDS011;68900;52.134;5.420;2023-09-19T03:21:00;6.03;;;1.02;;
79454;SDS011;68900;52.134;5.420;2023-09-19T03:23:28;9.63;;;1.63;;
79454;SDS011;68900;52.134;5.420;2023-09-19T03:25:55;8.82;;;1.77;;
79454;SDS011;68900;52.134;5.420;2023-09-19T03:28:22;7.80;;;1.40;;
79454;SDS011;68900;52.134;5.420;2023-09-19T03:33:45;6.68;;;1.30;;
79454;SDS011;68900;52.134;5.420;2023-09-19T03:36:11;9.27;;;1.58;;
79454;SDS011;68900;52.134;5.420;2023-09-19T03:38:41;8.82;;;1.30;;
79454;SDS011;68900;52.134;5.420;2023-09-19T03:41:08;8.18;;;1.40;;
79454;SDS011;68900;52.134;5.420;2023-09-19T03:43:35;11.30;;;1.50;;
79454;SDS011;68900;52.134;5.420;2023-09-19T03:46:02;7.18;;;1.45;;
79454;SDS011;68900;52.134;5.420;2023-09-19T03:48:31;7.13;;;1.15;;
79454;SDS011;68900;52.134;5.420;2023-09-19T03:50:59;8.95;;;1.60;;
79454;SDS011;68900;52.134;5.420;2023-09-19T03:53:26;8.15;;;1.40;;
79454;SDS011;68900;52.134;5.420;2023-09-19T03:55:53;12.13;;;1.40;;
79454;SDS011;68900;52.134;5.420;2023-09-19T03:58:19;7.65;;;1.40;;
79454;SDS011;68900;52.134;5.420;2023-09-19T04:00:46;8.95;;;1.60;;
79454;SDS011;68900;52.134;5.420;2023-09-19T04:03:14;7.90;;;1.50;;
79454;SDS011;68900;52.134;5.420;2023-09-19T04:05:46;7.60;;;1.30;;
79454;SDS011;68900;52.134;5.420;2023-09-19T04:08:14;10.27;;;1.30;;
79454;SDS011;68900;52.134;5.420;2023-09-19T04:10:43;7.43;;;1.50;;
79454;SDS011;68900;52.134;5.420;2023-09-19T04:13:10;7.97;;;1.30;;
79454;SDS011;68900;52.134;5.420;2023-09-19T04:15:37;8.23;;;1.27;;
79454;SDS011;68900;52.134;5.420;2023-09-19T04:18:03;9.20;;;1.63;;
79454;SDS011;68900;52.134;5.420;2023-09-19T04:20:30;9.93;;;1.77;;
79454;SDS011;68900;52.134;5.420;2023-09-19T04:22:58;8.35;;;1.42;;
79454;SDS011;68900;52.134;5.420;2023-09-19T04:25:26;6.57;;;1.30;;
79454;SDS011;68900;52.134;5.420;2023-09-19T04:27:54;12.05;;;1.38;;
79454;SDS011;68900;52.134;5.420;2023-09-19T04:30:20;7.07;;;1.35;;
79454;SDS011;68900;52.134;5.420;2023-09-19T04:32:48;7.50;;;1.27;;
79454;SDS011;68900;52.134;5.420;2023-09-19T04:35:17;5.80;;;1.23;;
79454;SDS011;68900;52.134;5.420;2023-09-19T04:37:44;14.07;;;1.85;;
79454;SDS011;68900;52.134;5.420;2023-09-19T04:40:11;8.30;;;1.23;;
79454;SDS011;68900;52.134;5.420;2023-09-19T04:42:43;8.43;;;1.50;;
79454;SDS011;68900;52.134;5.420;2023-09-19T04:45:10;7.80;;;1.60;;
79454;SDS011;68900;52.134;5.420;2023-09-19T04:47:37;10.18;;;1.10;;
79454;SDS011;68900;52.134;5.420;2023-09-19T04:50:07;7.93;;;1.35;;
79454;SDS011;68900;52.134;5.420;2023-09-19T04:52:38;7.03;;;1.35;;
79454;SDS011;68900;52.134;5.420;2023-09-19T04:55:10;9.02;;;1.42;;
79454;SDS011;68900;52.134;5.420;2023-09-19T04:57:46;7.72;;;1.20;;
79454;SDS011;68900;52.134;5.420;2023-09-19T05:00:14;6.53;;;1.20;;
79454;SDS011;68900;52.134;5.420;2023-09-19T05:02:43;14.68;;;1.60;;
79454;SDS011;68900;52.134;5.420;2023-09-19T05:05:10;5.93;;;1.25;;
79454;SDS011;68900;52.134;5.420;2023-09-19T05:07:41;9.27;;;1.08;;
79454;SDS011;68900;52.134;5.420;2023-09-19T05:10:08;6.50;;;1.40;;
79454;SDS011;68900;52.134;5.420;2023-09-19T05:12:36;9.63;;;1.73;;
79454;SDS011;68900;52.134;5.420;2023-09-19T05:15:03;8.48;;;1.02;;
79454;SDS011;68900;52.134;5.420;2023-09-19T05:17:31;7.00;;;1.40;;
79454;SDS011;68900;52.134;5.420;2023-09-19T05:19:57;9.02;;;1.20;;
79454;SDS011;68900;52.134;5.420;2023-09-19T05:22:26;10.70;;;1.50;;
79454;SDS011;68900;52.134;5.420;2023-09-19T05:24:53;9.02;;;1.33;;
79454;SDS011;68900;52.134;5.420;2023-09-19T05:27:20;7.60;;;1.60;;
79454;SDS011;68900;52.134;5.420;2023-09-19T05:29:47;7.85;;;1.33;;
79454;SDS011;68900;52.134;5.420;2023-09-19T05:32:15;8.82;;;1.45;;
79454;SDS011;68900;52.134;5.420;2023-09-19T05:34:42;6.57;;;1.40;;
79454;SDS011;68900;52.134;5.420;2023-09-19T05:37:08;8.35;;;1.75;;
79454;SDS011;68900;52.134;5.420;2023-09-19T05:39:35;8.27;;;1.02;;
79454;SDS011;68900;52.134;5.420;2023-09-19T05:42:03;7.38;;;1.48;;
79454;SDS011;68900;52.134;5.420;2023-09-19T05:44:30;10.63;;;1.45;;
79454;SDS011;68900;52.134;5.420;2023-09-19T05:46:58;7.90;;;1.35;;
79454;SDS011;68900;52.134;5.420;2023-09-19T05:49:24;5.40;;;1.20;;
79454;SDS011;68900;52.134;5.420;2023-09-19T05:51:51;8.63;;;1.30;;
79454;SDS011;68900;52.134;5.420;2023-09-19T05:54:22;8.70;;;1.48;;
79454;SDS011;68900;52.134;5.420;2023-09-19T05:56:49;8.10;;;1.30;;
79454;SDS011;68900;52.134;5.420;2023-09-19T05:59:19;5.18;;;1.45;;
79454;SDS011;68900;52.134;5.420;2023-09-19T06:01:45;8.38;;;1.40;;
79454;SDS011;68900;52.134;5.420;2023-09-19T06:04:13;9.88;;;1.23;;
79454;SDS011;68900;52.134;5.420;2023-09-19T06:06:40;7.65;;;1.42;;
79454;SDS011;68900;52.134;5.420;2023-09-19T06:09:06;9.63;;;1.42;;
79454;SDS011;68900;52.134;5.420;2023-09-19T06:11:36;5.88;;;1.27;;
79454;SDS011;68900;52.134;5.420;2023-09-19T06:14:03;8.20;;;1.20;;
79454;SDS011;68900;52.134;5.420;2023-09-19T06:16:30;7.93;;;1.35;;
79454;SDS011;68900;52.134;5.420;2023-09-19T06:18:59;8.00;;;1.45;;
79454;SDS011;68900;52.134;5.420;2023-09-19T06:21:26;5.88;;;1.35;;
79454;SDS011;68900;52.134;5.420;2023-09-19T06:23:53;11.88;;;1.75;;
79454;SDS011;68900;52.134;5.420;2023-09-19T06:26:20;6.65;;;1.33;;
79454;SDS011;68900;52.134;5.420;2023-09-19T06:28:47;8.48;;;1.40;;
79454;SDS011;68900;52.134;5.420;2023-09-19T06:31:13;9.07;;;1.40;;
79454;SDS011;68900;52.134;5.420;2023-09-19T06:33:40;12.18;;;1.40;;
79454;SDS011;68900;52.134;5.420;2023-09-19T06:36:07;7.60;;;1.40;;
79454;SDS011;68900;52.134;5.420;2023-09-19T06:38:33;7.07;;;1.48;;
79454;SDS011;68900;52.134;5.420;2023-09-19T06:41:02;9.13;;;1.35;;
79454;SDS011;68900;52.134;5.420;2023-09-19T06:43:33;9.85;;;1.40;;
79454;SDS011;68900;52.134;5.420;2023-09-19T06:46:03;7.20;;;1.13;;
79454;SDS011;68900;52.134;5.420;2023-09-19T06:48:30;11.27;;;1.65;;
79454;SDS011;68900;52.134;5.420;2023-09-19T06:50:59;10.93;;;1.40;;
79454;SDS011;68900;52.134;5.420;2023-09-19T06:53:32;6.00;;;1.20;;
79454;SDS011;68900;52.134;5.420;2023-09-19T06:55:59;9.52;;;1.63;;
79454;SDS011;68900;52.134;5.420;2023-09-19T06:58:25;7.80;;;1.20;;
79454;SDS011;68900;52.134;5.420;2023-09-19T07:00:52;9.57;;;1.67;;
79454;SDS011;68900;52.134;5.420;2023-09-19T07:03:20;7.25;;;1.30;;
79454;SDS011;68900;52.134;5.420;2023-09-19T07:05:50;14.30;;;1.50;;
79454;SDS011;68900;52.134;5.420;2023-09-19T07:08:16;8.18;;;1.17;;
79454;SDS011;68900;52.134;5.420;2023-09-19T07:10:45;9.75;;;1.42;;
79454;SDS011;68900;52.134;5.420;2023-09-19T07:13:15;12.00;;;1.23;;
79454;SDS011;68900;52.134;5.420;2023-09-19T07:15:45;12.52;;;1.60;;
79454;SDS011;68900;52.134;5.420;2023-09-19T07:18:17;10.98;;;1.50;;
79454;SDS011;68900;52.134;5.420;2023-09-19T07:20:44;10.10;;;1.67;;
79454;SDS011;68900;52.134;5.420;2023-09-19T07:23:16;12.10;;;1.65;;
79454;SDS011;68900;52.134;5.420;2023-09-19T07:25:48;9.88;;;1.60;;
79454;SDS011;68900;52.134;5.420;2023-09-19T07:28:15;11.77;;;1.30;;
79454;SDS011;68900;52.134;5.420;2023-09-19T07:30:42;10.68;;;1.60;;
79454;SDS011;68900;52.134;5.420;2023-09-19T07:33:08;9.40;;;1.35;;
79454;SDS011;68900;52.134;5.420;2023-09-19T07:35:38;8.18;;;1.30;;
79454;SDS011;68900;52.134;5.420;2023-09-19T07:38:08;10.48;;;1.73;;
79454;SDS011;68900;52.134;5.420;2023-09-19T07:40:36;12.68;;;1.85;;
79454;SDS011;68900;52.134;5.420;2023-09-19T07:43:03;8.90;;;1.38;;
79454;SDS011;68900;52.134;5.420;2023-09-19T07:45:31;9.35;;;1.60;;
79454;SDS011;68900;52.134;5.420;2023-09-19T07:47:58;6.22;;;1.65;;
79454;SDS011;68900;52.134;5.420;2023-09-19T07:50:26;12.50;;;1.80;;
79454;SDS011;68900;52.134;5.420;2023-09-19T07:52:53;13.20;;;1.63;;
79454;SDS011;68900;52.134;5.420;2023-09-19T07:55:20;9.15;;;1.23;;
79454;SDS011;68900;52.134;5.420;2023-09-19T07:57:50;9.20;;;1.27;;
79454;SDS011;68900;52.134;5.420;2023-09-19T08:00:17;10.73;;;1.77;;
79454;SDS011;68900;52.134;5.420;2023-09-19T08:02:44;9.40;;;1.13;;
79454;SDS011;68900;52.134;5.420;2023-09-19T08:05:15;12.23;;;1.63;;
79454;SDS011;68900;52.134;5.420;2023-09-19T08:07:43;10.40;;;1.58;;
79454;SDS011;68900;52.134;5.420;2023-09-19T08:10:11;10.63;;;1.58;;
79454;SDS011;68900;52.134;5.420;2023-09-19T08:12:42;11.45;;;1.67;;
79454;SDS011;68900;52.134;5.420;2023-09-19T08:15:13;11.18;;;1.65;;
79454;SDS011;68900;52.134;5.420;2023-09-19T08:17:43;12.68;;;1.50;;
79454;SDS011;68900;52.134;5.420;2023-09-19T08:20:10;11.43;;;1.50;;
79454;SDS011;68900;52.134;5.420;2023-09-19T08:22:48;10.32;;;1.42;;
79454;SDS011;68900;52.134;5.420;2023-09-19T08:25:21;5.88;;;1.38;;
79454;SDS011;68900;52.134;5.420;2023-09-19T08:27:48;12.15;;;2.17;;
79454;SDS011;68900;52.134;5.420;2023-09-19T08:30:19;12.85;;;1.80;;
79454;SDS011;68900;52.134;5.420;2023-09-19T08:32:51;16.90;;;1.70;;
79454;SDS011;68900;52.134;5.420;2023-09-19T08:35:17;8.27;;;1.42;;
79454;SDS011;68900;52.134;5.420;2023-09-19T08:37:44;8.82;;;1.60;;
79454;SDS011;68900;52.134;5.420;2023-09-19T08:40:12;6.65;;;1.52;;
79454;SDS011;68900;52.134;5.420;2023-09-19T08:42:49;9.85;;;1.83;;
79454;SDS011;68900;52.134;5.420;2023-09-19T08:45:23;6.82;;;1.30;;
79454;SDS011;68900;52.134;5.420;2023-09-19T08:50:33;11.35;;;1.48;;
79454;SDS011;68900;52.134;5.420;2023-09-19T08:53:10;8.15;;;1.63;;
79454;SDS011;68900;52.134;5.420;2023-09-19T08:55:40;10.98;;;1.50;;
79454;SDS011;68900;52.134;5.420;2023-09-19T08:58:09;9.77;;;1.55;;
79454;SDS011;68900;52.134;5.420;2023-09-19T09:00:37;10.10;;;1.40;;
79454;SDS011;68900;52.134;5.420;2023-09-19T09:03:09;10.10;;;1.67;;
79454;SDS011;68900;52.134;5.420;2023-09-19T09:05:36;17.42;;;1.73;;
79454;SDS011;68900;52.134;5.420;2023-09-19T09:08:07;9.23;;;1.48;;
79454;SDS011;68900;52.134;5.420;2023-09-19T09:10:33;7.47;;;1.38;;
79454;SDS011;68900;52.134;5.420;2023-09-19T09:13:00;13.93;;;1.88;;
79454;SDS011;68900;52.134;5.420;2023-09-19T09:15:29;10.60;;;2.03;;
79454;SDS011;68900;52.134;5.420;2023-09-19T09:17:59;13.15;;;2.20;;
79454;SDS011;68900;52.134;5.420;2023-09-19T09:20:25;9.27;;;1.52;;
79454;SDS011;68900;52.134;5.420;2023-09-19T09:22:52;11.70;;;1.90;;
79454;SDS011;68900;52.134;5.420;2023-09-19T09:25:21;15.25;;;1.63;;
79454;SDS011;68900;52.134;5.420;2023-09-19T09:28:00;7.40;;;1.95;;
79454;SDS011;68900;52.134;5.420;2023-09-19T09:30:34;7.53;;;1.40;;
79454;SDS011;68900;52.134;5.420;2023-09-19T09:33:12;10.73;;;1.60;;
79454;SDS011;68900;52.134;5.420;2023-09-19T09:38:24;14.40;;;1.63;;
79454;SDS011;68900;52.134;5.420;2023-09-19T09:43:34;9.52;;;1.50;;
79454;SDS011;68900;52.134;5.420;2023-09-19T09:46:06;10.52;;;1.85;;
79454;SDS011;68900;52.134;5.420;2023-09-19T09:48:46;8.88;;;1.40;;
79454;SDS011;68900;52.134;5.420;2023-09-19T09:51:33;8.57;;;1.50;;
79454;SDS011;68900;52.134;5.420;2023-09-19T09:54:14;11.32;;;2.10;;
79454;SDS011;68900;52.134;5.420;2023-09-19T09:56:55;13.20;;;1.73;;
79454;SDS011;68900;52.134;5.420;2023-09-19T09:59:43;11.65;;;1.60;;
79454;SDS011;68900;52.134;5.420;2023-09-19T10:02:28;11.35;;;2.00;;
79454;SDS011;68900;52.134;5.420;2023-09-19T10:04:59;9.65;;;1.42;;
79454;SDS011;68900;52.134;5.420;2023-09-19T10:08:10;6.45;;;1.13;;
79454;SDS011;68900;52.134;5.420;2023-09-19T10:10:39;9.23;;;1.30;;
79454;SDS011;68900;52.134;5.420;2023-09-19T10:13:12;11.00;;;1.48;;
79454;SDS011;68900;52.134;5.420;2023-09-19T10:15:44;7.45;;;1.30;;
79454;SDS011;68900;52.134;5.420;2023-09-19T10:18:22;7.78;;;1.17;;
79454;SDS011;68900;52.134;5.420;2023-09-19T10:23:17;5.93;;;1.23;;
79454;SDS011;68900;52.134;5.420;2023-09-19T10:25:53;7.15;;;1.30;;
79454;SDS011;68900;52.134;5.420;2023-09-19T10:28:20;7.97;;;1.42;;
79454;SDS011;68900;52.134;5.420;2023-09-19T10:30:51;10.27;;;1.45;;
79454;SDS011;68900;52.134;5.420;2023-09-19T10:33:24;7.47;;;1.27;;
79454;SDS011;68900;52.134;5.420;2023-09-19T10:35:58;8.00;;;0.88;;
79454;SDS011;68900;52.134;5.420;2023-09-19T10:38:27;7.95;;;1.40;;
79454;SDS011;68900;52.134;5.420;2023-09-19T10:40:56;9.10;;;1.38;;
79454;SDS011;68900;52.134;5.420;2023-09-19T10:43:31;13.32;;;2.25;;
79454;SDS011;68900;52.134;5.420;2023-09-19T10:46:02;7.13;;;1.23;;
79454;SDS011;68900;52.134;5.420;2023-09-19T10:48:38;12.23;;;1.52;;
79454;SDS011;68900;52.134;5.420;2023-09-19T10:53:49;10.73;;;1.27;;
79454;SDS011;68900;52.134;5.420;2023-09-19T10:56:21;10.45;;;1.88;;
79454;SDS011;68900;52.134;5.420;2023-09-19T11:04:23;7.70;;;1.52;;
79454;SDS011;68900;52.134;5.420;2023-09-19T11:10:13;8.52;;;1.33;;
79454;SDS011;68900;52.134;5.420;2023-09-19T11:14:59;6.20;;;1.13;;
79454;SDS011;68900;52.134;5.420;2023-09-19T11:17:34;6.50;;;1.30;;
79454;SDS011;68900;52.134;5.420;2023-09-19T11:30:36;10.73;;;1.70;;
79454;SDS011;68900;52.134;5.420;2023-09-19T11:33:16;10.02;;;1.63;;
79454;SDS011;68900;52.134;5.420;2023-09-19T11:36:04;9.40;;;1.40;;
79454;SDS011;68900;52.134;5.420;2023-09-19T11:48:54;10.18;;;1.15;;
79454;SDS011;68900;52.134;5.420;2023-09-19T11:51:23;6.00;;;0.98;;
79454;SDS011;68900;52.134;5.420;2023-09-19T11:53:58;5.32;;;0.95;;
79454;SDS011;68900;52.134;5.420;2023-09-19T11:56:28;6.10;;;1.30;;
79454;SDS011;68900;52.134;5.420;2023-09-19T11:58:55;6.60;;;0.98;;
79454;SDS011;68900;52.134;5.420;2023-09-19T12:01:30;5.50;;;0.90;;
79454;SDS011;68900;52.134;5.420;2023-09-19T12:03:59;5.00;;;0.82;;
79454;SDS011;68900;52.134;5.420;2023-09-19T12:06:28;5.15;;;0.88;;
79454;SDS011;68900;52.134;5.420;2023-09-19T12:08:58;4.43;;;0.90;;
79454;SDS011;68900;52.134;5.420;2023-09-19T12:11:29;7.82;;;1.20;;
79454;SDS011;68900;52.134;5.420;2023-09-19T12:14:01;10.13;;;1.17;;
79454;SDS011;68900;52.134;5.420;2023-09-19T12:16:28;5.55;;;0.90;;
79454;SDS011;68900;52.134;5.420;2023-09-19T12:18:59;5.55;;;0.90;;
79454;SDS011;68900;52.134;5.420;2023-09-19T12:21:44;5.10;;;0.80;;
79454;SDS011;68900;52.134;5.420;2023-09-19T12:24:12;5.28;;;0.82;;
79454;SDS011;68900;52.134;5.420;2023-09-19T12:26:43;2.90;;;0.77;;
79454;SDS011;68900;52.134;5.420;2023-09-19T12:29:18;5.45;;;0.90;;
79454;SDS011;68900;52.134;5.420;2023-09-19T12:31:50;5.57;;;0.85;;
79454;SDS011;68900;52.134;5.420;2023-09-19T12:34:20;4.68;;;0.70;;
79454;SDS011;68900;52.134;5.420;2023-09-19T12:36:49;7.35;;;1.10;;
79454;SDS011;68900;52.134;5.420;2023-09-19T12:39:24;7.35;;;1.13;;
79454;SDS011;68900;52.134;5.420;2023-09-19T12:41:52;5.13;;;0.80;;
79454;SDS011;68900;52.134;5.420;2023-09-19T12:44:19;9.32;;;1.10;;
79454;SDS011;68900;52.134;5.420;2023-09-19T12:46:46;6.88;;;1.00;;
79454;SDS011;68900;52.134;5.420;2023-09-19T12:49:17;5.85;;;0.93;;
79454;SDS011;68900;52.134;5.420;2023-09-19T12:51:49;5.57;;;0.88;;
79454;SDS011;68900;52.134;5.420;2023-09-19T12:54:15;5.25;;;0.80;;
79454;SDS011;68900;52.134;5.420;2023-09-19T12:56:43;3.95;;;0.98;;
79454;SDS011;68900;52.134;5.420;2023-09-19T12:59:14;5.47;;;0.93;;
79454;SDS011;68900;52.134;5.420;2023-09-19T13:01:42;3.88;;;0.70;;
79454;SDS011;68900;52.134;5.420;2023-09-19T13:04:19;7.40;;;0.73;;
79454;SDS011;68900;52.134;5.420;2023-09-19T13:06:52;6.60;;;1.00;;
79454;SDS011;68900;52.134;5.420;2023-09-19T13:09:22;8.80;;;0.85;;
79454;SDS011;68900;52.134;5.420;2023-09-19T13:12:00;4.75;;;0.88;;
79454;SDS011;68900;52.134;5.420;2023-09-19T13:14:32;3.97;;;0.60;;
79454;SDS011;68900;52.134;5.420;2023-09-19T13:17:06;7.78;;;0.90;;
79454;SDS011;68900;52.134;5.420;2023-09-19T13:19:45;6.30;;;0.80;;
79454;SDS011;68900;52.134;5.420;2023-09-19T13:22:39;4.22;;;0.85;;
79454;SDS011;68900;52.134;5.420;2023-09-19T13:25:21;4.40;;;0.85;;
79454;SDS011;68900;52.134;5.420;2023-09-19T13:27:49;5.00;;;0.68;;
79454;SDS011;68900;52.134;5.420;2023-09-19T13:30:21;6.93;;;0.90;;
79454;SDS011;68900;52.134;5.420;2023-09-19T13:32:51;4.50;;;0.70;;
79454;SDS011;68900;52.134;5.420;2023-09-19T13:35:19;2.85;;;0.57;;
79454;SDS011;68900;52.134;5.420;2023-09-19T13:37:46;3.92;;;0.82;;
79454;SDS011;68900;52.134;5.420;2023-09-19T13:40:17;5.43;;;0.63;;
79454;SDS011;68900;52.134;5.420;2023-09-19T13:42:44;4.60;;;0.65;;
79454;SDS011;68900;52.134;5.420;2023-09-19T13:45:10;6.60;;;1.02;;
79454;SDS011;68900;52.134;5.420;2023-09-19T13:47:39;5.80;;;0.80;;
79454;SDS011;68900;52.134;5.420;2023-09-19T13:50:08;2.40;;;0.55;;
79454;SDS011;68900;52.134;5.420;2023-09-19T13:52:36;12.25;;;0.90;;
79454;SDS011;68900;52.134;5.420;2023-09-19T13:55:05;6.95;;;0.93;;
79454;SDS011;68900;52.134;5.420;2023-09-19T13:57:33;2.42;;;0.55;;
79454;SDS011;68900;52.134;5.420;2023-09-19T13:59:59;6.57;;;0.70;;
79454;SDS011;68900;52.134;5.420;2023-09-19T14:02:26;6.55;;;1.00;;
79454;SDS011;68900;52.134;5.420;2023-09-19T14:04:53;5.28;;;0.75;;
79454;SDS011;68900;52.134;5.420;2023-09-19T14:07:19;6.07;;;0.93;;
79454;SDS011;68900;52.134;5.420;2023-09-19T14:09:46;3.60;;;0.77;;
79454;SDS011;68900;52.134;5.420;2023-09-19T14:12:14;4.45;;;0.63;;
79454;SDS011;68900;52.134;5.420;2023-09-19T14:14:42;5.15;;;1.13;;
79454;SDS011;68900;52.134;5.420;2023-09-19T14:17:11;5.70;;;0.50;;
79454;SDS011;68900;52.134;5.420;2023-09-19T14:19:40;4.47;;;0.65;;
79454;SDS011;68900;52.134;5.420;2023-09-19T14:22:11;4.15;;;0.70;;
79454;SDS011;68900;52.134;5.420;2023-09-19T14:24:40;8.40;;;0.80;;
79454;SDS011;68900;52.134;5.420;2023-09-19T14:27:10;3.50;;;1.38;;
79454;SDS011;68900;52.134;5.420;2023-09-19T14:29:37;4.03;;;0.60;;
79454;SDS011;68900;52.134;5.420;2023-09-19T14:32:04;4.05;;;0.77;;
79454;SDS011;68900;52.134;5.420;2023-09-19T14:34:31;5.05;;;0.90;;
79454;SDS011;68900;52.134;5.420;2023-09-19T14:36:58;5.28;;;1.10;;
79454;SDS011;68900;52.134;5.420;2023-09-19T14:39:25;7.47;;;1.13;;
79454;SDS011;68900;52.134;5.420;2023-09-19T14:41:53;5.75;;;0.90;;
79454;SDS011;68900;52.134;5.420;2023-09-19T14:44:20;4.72;;;1.00;;
79454;SDS011;68900;52.134;5.420;2023-09-19T14:46:46;6.32;;;1.00;;
79454;SDS011;68900;52.134;5.420;2023-09-19T14:49:20;5.60;;;1.23;;
79454;SDS011;68900;52.134;5.420;2023-09-19T14:51:47;5.57;;;1.02;;
79454;SDS011;68900;52.134;5.420;2023-09-19T14:54:14;5.13;;;1.20;;
79454;SDS011;68900;52.134;5.420;2023-09-19T14:56:43;6.15;;;1.02;;
79454;SDS011;68900;52.134;5.420;2023-09-19T14:59:12;8.55;;;1.27;;
79454;SDS011;68900;52.134;5.420;2023-09-19T15:01:40;4.47;;;0.90;;
79454;SDS011;68900;52.134;5.420;2023-09-19T15:04:07;5.47;;;0.95;;
79454;SDS011;68900;52.134;5.420;2023-09-19T15:06:35;5.88;;;1.20;;
79454;SDS011;68900;52.134;5.420;2023-09-19T15:09:02;4.30;;;0.98;;
79454;SDS011;68900;52.134;5.420;2023-09-19T15:11:31;5.65;;;1.10;;
79454;SDS011;68900;52.134;5.420;2023-09-19T15:13:57;6.30;;;1.10;;
79454;SDS011;68900;52.134;5.420;2023-09-19T15:16:25;4.43;;;1.27;;
79454;SDS011;68900;52.134;5.420;2023-09-19T15:18:51;5.47;;;1.10;;
79454;SDS011;68900;52.134;5.420;2023-09-19T15:21:18;4.82;;;1.08;;
79454;SDS011;68900;52.134;5.420;2023-09-19T15:23:45;10.48;;;1.50;;
79454;SDS011;68900;52.134;5.420;2023-09-19T15:26:13;7.18;;;1.13;;
79454;SDS011;68900;52.134;5.420;2023-09-19T15:28:45;5.25;;;1.15;;
79454;SDS011;68900;52.134;5.420;2023-09-19T15:31:12;7.28;;;1.33;;
79454;SDS011;68900;52.134;5.420;2023-09-19T15:33:40;9.82;;;1.77;;
79454;SDS011;68900;52.134;5.420;2023-09-19T15:36:07;6.53;;;1.42;;
79454;SDS011;68900;52.134;5.420;2023-09-19T15:38:55;6.05;;;1.42;;
79454;SDS011;68900;52.134;5.420;2023-09-19T15:41:24;7.45;;;1.40;;
79454;SDS011;68900;52.134;5.420;2023-09-19T15:43:58;5.93;;;1.58;;
79454;SDS011;68900;52.134;5.420;2023-09-19T15:46:27;7.65;;;1.00;;
79454;SDS011;68900;52.134;5.420;2023-09-19T15:48:56;4.57;;;1.42;;
79454;SDS011;68900;52.134;5.420;2023-09-19T15:51:24;3.72;;;1.02;;
79454;SDS011;68900;52.134;5.420;2023-09-19T15:53:51;6.43;;;1.50;;
79454;SDS011;68900;52.134;5.420;2023-09-19T15:56:20;6.38;;;1.35;;
79454;SDS011;68900;52.134;5.420;2023-09-19T15:58:47;5.47;;;1.20;;
79454;SDS011;68900;52.134;5.420;2023-09-19T16:03:49;6.63;;;1.65;;
79454;SDS011;68900;52.134;5.420;2023-09-19T16:06:20;4.05;;;1.13;;
79454;SDS011;68900;52.134;5.420;2023-09-19T16:08:50;5.28;;;1.20;;